Time;durP1;ratioP1;P1;durP2;ratioP2;P2;SDS_P1;SDS_P2;PMS_P1;PMS_P2;Temp;Humidity;BMP_temperature;BMP_pressure;BME280_temperature;BME280_humidity;BME280_pressure;Samples;Min_cycle;Max_cycle;Signal;HPM_P1;HPM_P2
2023/10/22 00:04:17;;;;;;;4.93;1.10;;;;;;;11.84;68.16;98961.53;10124831;29;20057;-79
2023/10/22 00:09:20;;;;;;;3.03;1.10;;;;;;;11.83;68.20;98967.09;10128397;29;20103;-78
2023/10/22 00:14:23;;;;;;;4.65;0.88;;;;;;;11.74;68.26;98958.16;10122890;29;21092;-78
2023/10/22 00:19:27;;;;;;;3.00;0.73;;;;;;;11.75;68.26;98970.59;10120706;29;20055;-79
2023/10/22 00:24:30;;;;;;;2.55;0.70;;;;;;;11.67;68.20;98975.97;10120877;29;20067;-77
2023/10/22 00:29:33;;;;;;;3.55;0.90;;;;;;;11.72;67.79;98971.78;10125271;29;20075;-80
2023/10/22 00:34:37;;;;;;;2.72;0.75;;;;;;;11.63;67.89;98980.00;10113959;29;20099;-79
2023/10/22 00:39:41;;;;;;;6.63;0.90;;;;;;;11.70;67.55;98973.78;10093843;29;20050;-79
2023/10/22 00:44:44;;;;;;;2.67;1.30;;;;;;;11.69;67.34;98982.88;10100137;29;20482;-80
2023/10/22 00:49:49;;;;;;;4.68;1.17;;;;;;;11.78;66.82;98977.50;10108900;29;20044;-79
2023/10/22 00:54:53;;;;;;;2.92;0.68;;;;;;;11.86;66.36;98972.97;10116689;29;20062;-79
2023/10/22 00:59:55;;;;;;;4.05;0.88;;;;;;;11.75;66.83;98970.59;10111071;29;20052;-79
2023/10/22 01:05:00;;;;;;;2.78;1.00;;;;;;;11.71;66.94;98966.53;10124383;29;21130;-79
2023/10/22 01:10:03;;;;;;;3.35;0.70;;;;;;;11.70;66.95;98962.19;10115945;29;20207;-78
2023/10/22 01:15:07;;;;;;;4.43;0.75;;;;;;;11.79;66.65;98960.34;10127940;29;20055;-78
2023/10/22 01:20:13;;;;;;;3.15;0.60;;;;;;;11.66;66.91;98967.06;10122308;29;21140;-77
2023/10/22 01:25:17;;;;;;;1.92;0.90;;;;;;;11.64;66.96;98974.44;10108057;29;20057;-79
2023/10/22 01:30:21;;;;;;;4.22;0.93;;;;;;;11.63;67.51;98972.78;10127298;29;20430;-78
2023/10/22 01:35:23;;;;;;;2.90;1.02;;;;;;;11.51;68.01;98984.84;10129140;29;20052;-80
2023/10/22 01:40:28;;;;;;;4.03;0.90;;;;;;;11.47;68.19;98988.88;10140747;29;20075;-78
2023/10/22 01:45:31;;;;;;;2.58;0.85;;;;;;;11.44;68.25;98989.22;10126948;29;20048;-79
2023/10/22 01:50:34;;;;;;;4.40;0.82;;;;;;;11.33;68.75;98989.50;10121607;29;20059;-79
2023/10/22 01:55:39;;;;;;;4.68;1.00;;;;;;;11.33;68.96;98989.50;10113193;29;20055;-79
2023/10/22 02:00:45;;;;;;;3.65;0.70;;;;;;;11.36;68.84;98991.88;10128484;29;20603;-80
2023/10/22 02:05:48;;;;;;;5.22;0.70;;;;;;;11.31;68.99;98991.50;10108147;29;20135;-79
2023/10/22 02:10:52;;;;;;;3.65;0.80;;;;;;;11.28;69.23;98996.19;10133942;29;20063;-79
2023/10/22 02:15:55;;;;;;;3.60;0.75;;;;;;;11.22;69.41;98994.19;10123860;29;20596;-78
2023/10/22 02:20:59;;;;;;;4.65;0.90;;;;;;;11.34;69.08;99004.63;10132951;29;20070;-79
2023/10/22 02:26:05;;;;;;;3.25;0.80;;;;;;;11.37;69.18;98997.06;10115767;29;20424;-79
2023/10/22 02:31:10;;;;;;;5.30;0.75;;;;;;;11.21;69.86;98994.31;10129248;29;20055;-79
2023/10/22 02:36:13;;;;;;;3.40;0.77;;;;;;;11.30;69.69;99004.13;10116764;29;20055;-77
2023/10/22 02:41:17;;;;;;;5.90;0.85;;;;;;;11.14;70.06;98994.13;10143150;29;20060;-78
2023/10/22 02:46:20;;;;;;;4.15;0.95;;;;;;;11.25;69.96;99009.13;10111686;29;20059;-78
2023/10/22 02:51:23;;;;;;;4.22;0.70;;;;;;;11.19;70.15;98996.31;10130190;29;20052;-81
2023/10/22 02:56:28;;;;;;;7.75;1.30;;;;;;;11.15;70.43;99014.63;10114807;29;20158;-80
2023/10/22 03:01:30;;;;;;;5.35;0.80;;;;;;;11.08;71.05;99007.31;10161879;29;20040;-78
2023/10/22 03:06:34;;;;;;;2.88;0.82;;;;;;;11.11;70.78;99001.63;10116062;29;20071;-80
2023/10/22 03:11:38;;;;;;;6.10;1.02;;;;;;;11.05;71.33;99014.72;10104300;29;20059;-79
2023/10/22 03:16:43;;;;;;;5.55;0.95;;;;;;;11.10;70.90;99008.03;10111193;29;20536;-79
2023/10/22 03:21:46;;;;;;;5.07;0.90;;;;;;;11.07;71.30;99011.88;10109153;29;20515;-79
2023/10/22 03:26:50;;;;;;;4.78;0.60;;;;;;;11.06;71.59;99019.09;10134433;29;21241;-80
2023/10/22 03:31:53;;;;;;;3.65;1.00;;;;;;;11.03;71.82;99030.16;10126229;29;20076;-79
2023/10/22 03:36:56;;;;;;;5.25;1.02;;;;;;;10.90;72.40;99021.69;10123182;29;20720;-80
2023/10/22 03:42:00;;;;;;;3.00;0.50;;;;;;;10.93;72.27;99028.59;10111715;29;20072;-79
2023/10/22 03:47:04;;;;;;;2.80;0.90;;;;;;;11.08;72.20;99028.81;10114737;29;20078;-80
2023/10/22 03:52:07;;;;;;;6.35;1.55;;;;;;;10.80;72.75;99032.53;10123331;29;20432;-79
2023/10/22 03:57:11;;;;;;;1.80;0.70;;;;;;;10.89;73.01;99037.97;10112824;29;20052;-79
2023/10/22 04:02:14;;;;;;;4.70;0.70;;;;;;;10.96;72.85;99042.53;10118620;29;20143;-79
2023/10/22 04:07:17;;;;;;;4.88;1.02;;;;;;;10.81;73.61;99058.41;10119202;29;20796;-78
2023/10/22 04:12:22;;;;;;;1.63;0.80;;;;;;;10.76;74.05;99058.03;10120017;29;20055;-79
2023/10/22 04:17:25;;;;;;;6.18;1.60;;;;;;;10.81;74.02;99045.00;10125620;29;20058;-78
2023/10/22 04:22:28;;;;;;;4.38;0.90;;;;;;;10.70;74.51;99050.63;10117345;29;20058;-79
2023/10/22 04:27:32;;;;;;;4.43;0.60;;;;;;;10.56;75.41;99059.25;10112597;29;20516;-79
2023/10/22 04:32:36;;;;;;;5.78;0.80;;;;;;;10.65;75.11;99055.63;10117114;29;20056;-79
2023/10/22 04:37:39;;;;;;;4.55;0.80;;;;;;;10.61;75.40;99078.41;10121966;29;20043;-80
2023/10/22 04:42:43;;;;;;;3.75;0.82;;;;;;;10.63;75.74;99080.94;10116992;29;20047;-79
2023/10/22 04:47:46;;;;;;;6.43;1.10;;;;;;;10.55;76.15;99082.56;10114547;29;20043;-80
2023/10/22 04:52:49;;;;;;;1.75;0.80;;;;;;;10.70;75.73;99082.00;10128898;29;20076;-80
2023/10/22 04:57:55;;;;;;;4.10;0.68;;;;;;;10.45;76.53;99083.63;10128848;29;20055;-80
2023/10/22 05:02:59;;;;;;;3.42;0.80;;;;;;;10.49;76.77;99085.03;10107846;29;20551;-80
2023/10/22 05:08:02;;;;;;;4.28;1.05;;;;;;;10.49;76.63;99090.41;10114569;29;20052;-79
2023/10/22 05:13:06;;;;;;;6.18;1.00;;;;;;;10.33;77.83;99083.88;10123638;29;20063;-80
2023/10/22 05:18:09;;;;;;;2.53;0.80;;;;;;;10.32;78.20;99090.25;10122342;29;20048;-80
2023/10/22 05:23:12;;;;;;;4.18;0.88;;;;;;;10.30;78.71;99088.72;10127923;29;20056;-79
2023/10/22 05:28:16;;;;;;;3.42;1.10;;;;;;;10.30;79.04;99102.97;10123893;29;20059;-78
2023/10/22 05:33:19;;;;;;;2.88;0.95;;;;;;;10.24;79.54;99117.03;10117517;29;20759;-81
2023/10/22 05:38:22;;;;;;;7.13;1.27;;;;;;;10.29;79.93;99125.47;10105623;29;20503;-79
2023/10/22 05:43:27;;;;;;;3.00;0.82;;;;;;;10.43;79.43;99142.03;10118839;29;20052;-78
2023/10/22 05:48:30;;;;;;;2.03;0.82;;;;;;;10.56;79.04;99147.88;10117743;29;20713;-80
2023/10/22 05:53:33;;;;;;;3.25;0.85;;;;;;;10.48;79.58;99151.31;10121674;29;20084;-80
2023/10/22 05:58:38;;;;;;;4.35;0.70;;;;;;;10.45;80.60;99159.69;10136783;29;20051;-79
2023/10/22 06:03:41;;;;;;;3.30;0.90;;;;;;;10.37;81.57;99171.16;10143464;29;20063;-78
2023/10/22 06:08:49;;;;;;;3.33;0.77;;;;;;;10.59;80.79;99166.34;10182725;29;20062;-79
2023/10/22 06:13:53;;;;;;;2.95;0.80;;;;;;;10.57;81.36;99176.38;10146242;29;20071;-80
2023/10/22 06:18:57;;;;;;;3.85;0.60;;;;;;;10.67;81.38;99187.03;10131879;29;20075;-80
2023/10/22 06:24:00;;;;;;;1.95;0.55;;;;;;;10.83;80.65;99195.22;10126000;29;20044;-80
2023/10/22 06:29:04;;;;;;;1.50;0.30;;;;;;;10.75;81.09;99203.22;10159795;29;20040;-79
2023/10/22 06:34:07;;;;;;;1.92;0.25;;;;;;;10.90;80.75;99212.44;10166569;29;20114;-79
2023/10/22 06:39:10;;;;;;;2.03;0.52;;;;;;;11.40;77.90;99214.50;10119115;29;20056;-78
2023/10/22 06:44:14;;;;;;;4.70;0.40;;;;;;;11.24;79.03;99225.16;10121531;29;20075;-79
2023/10/22 06:49:17;;;;;;;1.40;0.50;;;;;;;11.77;77.53;99218.78;10118078;28;20786;-79
2023/10/22 06:54:20;;;;;;;4.40;0.40;;;;;;;11.91;76.61;99214.63;10128157;29;20052;-78
2023/10/22 06:59:24;;;;;;;3.10;0.40;;;;;;;11.86;76.84;99231.25;10108786;29;20505;-79
2023/10/22 07:04:27;;;;;;;1.20;0.40;;;;;;;12.02;76.38;99224.28;10114453;29;20056;-79
2023/10/22 07:09:30;;;;;;;2.10;0.40;;;;;;;11.94;76.83;99251.97;10132458;29;20056;-79
2023/10/22 07:14:34;;;;;;;1.23;0.30;;;;;;;12.15;76.52;99257.81;10129394;29;20052;-79
2023/10/22 07:19:38;;;;;;;1.25;0.30;;;;;;;11.64;78.50;99258.72;10140723;29;20056;-79
2023/10/22 07:24:41;;;;;;;0.85;0.40;;;;;;;12.13;77.24;99270.56;10130175;29;20560;-79
2023/10/22 07:29:45;;;;;;;2.50;0.50;;;;;;;11.76;78.70;99291.56;10140136;29;20095;-79
2023/10/22 07:34:48;;;;;;;2.42;0.40;;;;;;;11.99;78.36;99297.25;10137311;29;20177;-78
2023/10/22 07:39:51;;;;;;;2.10;0.40;;;;;;;12.01;78.63;99298.75;10138965;29;20377;-79
2023/10/22 07:44:55;;;;;;;0.77;0.35;;;;;;;12.28;77.19;99305.81;10134981;29;20058;-79
2023/10/22 07:49:58;;;;;;;1.88;0.55;;;;;;;12.24;76.58;99309.81;10127112;29;20047;-78
2023/10/22 07:55:01;;;;;;;1.70;0.55;;;;;;;12.09;77.60;99316.81;10128018;29;20044;-77
2023/10/22 08:00:12;;;;;;;0.77;0.25;;;;;;;12.28;77.62;99326.50;10127778;29;20448;-78
2023/10/22 08:05:16;;;;;;;0.50;0.40;;;;;;;12.16;77.42;99348.31;10129946;29;20453;-77
2023/10/22 08:10:19;;;;;;;0.77;0.40;;;;;;;12.50;75.48;99343.97;10110763;29;20052;-78
2023/10/22 08:15:23;;;;;;;0.68;0.38;;;;;;;12.42;75.57;99347.44;10129744;29;20282;-78
2023/10/22 08:20:26;;;;;;;1.02;0.30;;;;;;;12.34;76.32;99342.03;10104810;29;20059;-77
2023/10/22 08:25:29;;;;;;;0.80;0.32;;;;;;;12.24;76.38;99360.16;10124066;29;20071;-77
2023/10/22 08:30:33;;;;;;;1.83;0.50;;;;;;;11.92;77.70;99367.00;10117711;29;20056;-77
2023/10/22 08:35:36;;;;;;;1.10;0.40;;;;;;;12.04;77.22;99383.72;10103706;29;20052;-77
2023/10/22 08:40:41;;;;;;;1.35;0.40;;;;;;;12.49;75.38;99375.44;10132119;29;20043;-78
2023/10/22 08:45:48;;;;;;;3.45;0.70;;;;;;;12.26;75.25;99393.97;10142095;29;20059;-78
2023/10/22 08:50:53;;;;;;;1.77;1.02;;;;;;;12.19;76.18;99395.59;10135713;29;20078;-78
2023/10/22 08:55:58;;;;;;;0.82;0.55;;;;;;;12.36;75.02;99397.41;10135106;29;20419;-77
2023/10/22 09:01:03;;;;;;;2.60;0.60;;;;;;;12.52;73.06;99412.81;10112097;29;20211;-78
2023/10/22 09:06:06;;;;;;;6.63;1.50;;;;;;;12.28;73.58;99440.44;10129442;29;20092;-78
2023/10/22 09:11:14;;;;;;;1.67;0.60;;;;;;;12.62;72.25;99441.50;10127610;29;20056;-77
2023/10/22 09:16:32;;;;;;;0.75;0.47;;;;;;;12.41;73.16;99445.41;10124440;29;20071;-76
2023/10/22 09:21:41;;;;;;;1.92;0.50;;;;;;;12.94;71.28;99441.63;10113112;29;20071;-77
2023/10/22 09:26:47;;;;;;;1.95;0.55;;;;;;;12.90;69.51;99450.22;10095298;29;20424;-76
2023/10/22 09:31:55;;;;;;;3.45;1.38;;;;;;;12.96;68.19;99457.66;10114696;29;20063;-77
2023/10/22 09:36:59;;;;;;;1.65;0.70;;;;;;;13.22;66.61;99473.78;10112728;29;20182;-77
2023/10/22 09:42:04;;;;;;;2.03;0.65;;;;;;;13.50;64.46;99460.88;10114319;29;20059;-77
2023/10/22 09:47:21;;;;;;;0.50;0.40;;;;;;;13.70;65.85;99467.66;10120283;29;20052;-77
2023/10/22 09:52:27;;;;;;;1.85;0.40;;;;;;;13.49;65.50;99481.63;10112501;29;20068;-77
2023/10/22 09:57:32;;;;;;;1.17;0.30;;;;;;;13.45;64.05;99487.50;10125144;29;20040;-76
2023/10/22 10:02:39;;;;;;;0.20;0.20;;;;;;;13.18;65.55;99508.28;10118599;29;20060;-77
2023/10/22 10:07:43;;;;;;;0.60;0.32;;;;;;;12.76;66.71;99508.28;10123323;29;20061;-77
2023/10/22 10:12:46;;;;;;;2.05;0.25;;;;;;;12.99;65.29;99505.84;10121391;29;20059;-77
2023/10/22 10:17:53;;;;;;;1.48;0.40;;;;;;;13.32;64.25;99509.53;10132316;29;20552;-77
2023/10/22 10:23:04;;;;;;;0.40;0.40;;;;;;;13.07;63.73;99518.53;10131112;29;20056;-77
2023/10/22 10:28:08;;;;;;;1.25;0.50;;;;;;;13.41;64.44;99522.06;10130403;29;20791;-77
2023/10/22 10:33:14;;;;;;;1.75;0.30;;;;;;;13.71;63.11;99523.34;10131417;29;20056;-76
2023/10/22 10:38:21;;;;;;;2.63;0.52;;;;;;;13.87;62.46;99538.69;10132768;29;20147;-77
2023/10/22 10:44:03;;;;;;;2.08;0.43;;;;;;;13.62;63.73;99542.34;10133536;29;20137;-76
2023/10/22 10:49:07;;;;;;;1.13;1.03;;;;;;;13.56;63.12;99545.72;10134116;29;20540;-77
2023/10/22 10:54:19;;;;;;;1.00;0.70;;;;;;;13.77;63.10;99534.44;10131431;29;20064;-77
2023/10/22 10:59:33;;;;;;;4.00;0.53;;;;;;;13.73;61.56;99547.44;10136136;29;20051;-77
2023/10/22 11:04:39;;;;;;;2.10;0.60;;;;;;;13.98;60.47;99547.50;10141673;29;20729;-77
2023/10/22 11:09:42;;;;;;;0.35;0.30;;;;;;;14.57;57.98;99543.66;10120468;29;20055;-77
2023/10/22 11:14:54;;;;;;;1.02;0.30;;;;;;;14.34;57.36;99545.31;10120894;29;21166;-78
2023/10/22 11:19:59;;;;;;;1.20;0.60;;;;;;;13.69;58.82;99554.19;10127739;29;20480;-76
2023/10/22 11:25:04;;;;;;;1.75;0.65;;;;;;;14.09;58.51;99553.41;10125806;29;21206;-77
2023/10/22 11:30:08;;;;;;;1.35;0.47;;;;;;;14.15;57.63;99552.75;10125249;29;20052;-77
2023/10/22 11:35:12;;;;;;;0.63;0.35;;;;;;;13.92;57.79;99560.63;10128633;29;20132;-77
2023/10/22 11:40:25;;;;;;;0.65;0.30;;;;;;;13.68;58.07;99560.59;10123564;29;20053;-77
2023/10/22 11:45:30;;;;;;;1.13;0.50;;;;;;;13.62;57.82;99577.44;10131832;29;20044;-75
2023/10/22 11:50:37;;;;;;;2.28;0.50;;;;;;;13.59;58.65;99558.88;10099235;29;20059;-77
2023/10/22 11:55:40;;;;;;;0.82;0.47;;;;;;;13.68;58.27;99569.50;10114008;29;20083;-76
2023/10/22 12:00:42;;;;;;;1.20;0.63;;;;;;;14.04;60.06;99569.28;10123533;29;20048;-77
2023/10/22 12:05:47;;;;;;;2.20;0.43;;;;;;;14.21;58.73;99585.50;10124778;29;21124;-77
2023/10/22 12:10:50;;;;;;;0.55;0.47;;;;;;;14.03;58.08;99581.06;10111076;29;20059;-77
2023/10/22 12:15:53;;;;;;;0.47;0.40;;;;;;;14.09;58.03;99593.91;10125726;29;20052;-77
2023/10/22 12:20:57;;;;;;;1.40;0.43;;;;;;;13.98;58.64;99590.69;10130014;29;20721;-77
2023/10/22 12:26:00;;;;;;;0.98;0.50;;;;;;;14.19;58.71;99596.47;10130339;29;20239;-77
2023/10/22 12:31:07;;;;;;;1.40;0.45;;;;;;;14.44;57.94;99601.91;10129854;29;20047;-77
2023/10/22 12:36:12;;;;;;;2.30;0.77;;;;;;;14.88;58.21;99609.66;10131713;29;20061;-77
2023/10/22 12:41:15;;;;;;;3.15;0.60;;;;;;;14.19;60.66;99619.94;10129182;29;20068;-77
2023/10/22 12:46:18;;;;;;;1.02;0.60;;;;;;;14.26;60.43;99620.94;10144675;29;20052;-77
2023/10/22 12:51:22;;;;;;;1.15;0.38;;;;;;;14.69;59.17;99619.81;10129711;29;20051;-77
2023/10/22 12:56:25;;;;;;;1.10;0.80;;;;;;;15.08;57.31;99626.34;10102750;29;20049;-77
2023/10/22 13:01:28;;;;;;;0.73;0.55;;;;;;;15.25;55.54;99636.16;10110925;29;20056;-77
2023/10/22 13:06:32;;;;;;;0.55;0.40;;;;;;;15.21;56.93;99634.78;10098854;29;20056;-77
2023/10/22 13:11:37;;;;;;;1.33;0.60;;;;;;;15.78;55.73;99640.03;10116880;29;20507;-77
2023/10/22 13:16:40;;;;;;;1.92;0.68;;;;;;;16.20;53.94;99641.50;10107916;29;20344;-77
2023/10/22 13:21:46;;;;;;;1.90;0.60;;;;;;;15.78;54.43;99634.63;10105952;29;20048;-77
2023/10/22 13:26:49;;;;;;;1.58;0.50;;;;;;;15.90;54.64;99651.31;10132797;29;20173;-77
2023/10/22 13:31:52;;;;;;;2.13;0.50;;;;;;;15.96;54.91;99650.59;10139832;29;20508;-78
2023/10/22 13:36:56;;;;;;;2.10;0.40;;;;;;;15.78;54.73;99655.44;10123295;29;20575;-77
2023/10/22 13:41:59;;;;;;;2.20;0.80;;;;;;;15.41;56.54;99655.06;10145080;29;20062;-77
2023/10/22 13:47:02;;;;;;;1.52;0.80;;;;;;;15.20;57.63;99654.75;10137476;29;20337;-77
2023/10/22 13:52:07;;;;;;;0.90;0.60;;;;;;;14.98;59.30;99664.41;10136101;29;20060;-77
2023/10/22 13:57:10;;;;;;;0.88;0.40;;;;;;;14.47;60.14;99659.16;10114270;29;20054;-77
2023/10/22 14:02:13;;;;;;;1.73;0.63;;;;;;;14.95;59.77;99656.66;10130861;29;20060;-77
2023/10/22 14:07:17;;;;;;;1.10;0.55;;;;;;;15.00;59.77;99668.66;10135249;29;20055;-77
2023/10/22 14:12:20;;;;;;;3.42;0.40;;;;;;;14.90;60.74;99675.25;10124632;29;20056;-77
2023/10/22 14:17:23;;;;;;;2.30;0.50;;;;;;;14.52;61.97;99691.94;10119843;29;20088;-76
2023/10/22 14:22:27;;;;;;;2.90;0.70;;;;;;;14.33;62.88;99701.16;10125449;29;20067;-77
2023/10/22 14:27:31;;;;;;;2.97;0.57;;;;;;;13.96;64.40;99706.97;10127210;29;20135;-77
2023/10/22 14:32:34;;;;;;;1.52;0.40;;;;;;;13.84;64.59;99713.66;10123649;29;20052;-78
2023/10/22 14:37:39;;;;;;;1.00;0.50;;;;;;;13.75;65.26;99714.63;10130080;29;20123;-77
2023/10/22 14:42:42;;;;;;;0.55;0.30;;;;;;;13.58;66.45;99719.09;10125027;29;20052;-77
2023/10/22 14:47:45;;;;;;;1.83;0.70;;;;;;;13.70;66.31;99729.44;10135730;29;20060;-77
2023/10/22 14:52:49;;;;;;;1.08;0.50;;;;;;;13.77;66.51;99723.38;10131201;29;20111;-77
2023/10/22 14:57:52;;;;;;;24.17;17.27;;;;;;;13.64;66.88;99721.16;10129333;29;20070;-77
2023/10/22 15:02:55;;;;;;;1.88;1.08;;;;;;;13.61;66.81;99725.00;10122246;29;20126;-77
2023/10/22 15:07:59;;;;;;;2.65;0.93;;;;;;;13.30;67.51;99724.59;10129692;29;20054;-77
2023/10/22 15:13:02;;;;;;;30.55;19.70;;;;;;;13.43;67.50;99730.44;10115650;29;20086;-77
2023/10/22 15:18:05;;;;;;;8.93;4.82;;;;;;;13.34;68.01;99741.31;10138659;29;20056;-77
2023/10/22 15:23:10;;;;;;;14.77;10.23;;;;;;;13.24;69.41;99734.16;10129189;29;20070;-77
2023/10/22 15:28:13;;;;;;;3.60;2.33;;;;;;;13.34;68.84;99742.16;10125038;29;20082;-77
2023/10/22 15:33:16;;;;;;;9.15;6.13;;;;;;;13.36;69.10;99740.16;10111746;29;20055;-77
2023/10/22 15:38:21;;;;;;;3.42;2.65;;;;;;;13.09;70.10;99740.31;10110863;29;20078;-77
2023/10/22 15:43:24;;;;;;;7.72;5.82;;;;;;;13.21;70.36;99750.66;10128899;29;20048;-77
2023/10/22 15:48:30;;;;;;;13.77;10.45;;;;;;;13.26;70.48;99742.09;10127867;29;20058;-77
2023/10/22 15:53:38;;;;;;;12.88;6.18;;;;;;;13.18;70.87;99744.75;10127211;29;20051;-77
2023/10/22 15:58:41;;;;;;;6.93;3.25;;;;;;;13.07;71.69;99758.47;10125317;29;20051;-77
2023/10/22 16:03:44;;;;;;;3.63;2.15;;;;;;;12.98;72.49;99747.63;10125083;29;20040;-77
2023/10/22 16:08:49;;;;;;;9.02;5.63;;;;;;;12.90;73.43;99752.94;10118033;29;20054;-77
2023/10/22 16:13:52;;;;;;;2.30;1.02;;;;;;;12.76;74.40;99765.13;10123498;29;20067;-77
2023/10/22 16:18:55;;;;;;;2.38;2.05;;;;;;;12.75;75.21;99765.25;10120599;29;20048;-77
2023/10/22 16:24:00;;;;;;;5.95;4.40;;;;;;;12.87;75.06;99773.97;10121066;29;20056;-77
2023/10/22 16:29:03;;;;;;;10.88;8.32;;;;;;;12.87;75.25;99782.06;10115132;29;20079;-78
2023/10/22 16:34:06;;;;;;;2.88;1.25;;;;;;;12.82;75.67;99790.59;10121431;29;20056;-77
2023/10/22 16:39:10;;;;;;;2.33;1.20;;;;;;;12.73;76.23;99803.16;10125079;29;20141;-78
2023/10/22 16:44:13;;;;;;;1.20;1.10;;;;;;;12.46;78.01;99814.81;10126839;29;20052;-78
2023/10/22 16:49:15;;;;;;;1.42;0.85;;;;;;;12.60;78.07;99826.91;10131650;29;20056;-76
2023/10/22 16:54:20;;;;;;;3.58;2.15;;;;;;;12.67;79.08;99837.91;10132141;29;20051;-77
2023/10/22 16:59:23;;;;;;;2.95;1.50;;;;;;;12.28;83.10;99843.47;10129975;29;20166;-77
2023/10/22 17:04:26;;;;;;;2.72;1.52;;;;;;;12.29;85.31;99847.94;10128199;29;20112;-77
2023/10/22 17:09:31;;;;;;;4.10;2.70;;;;;;;11.77;90.23;99856.41;10126309;29;20052;-77
2023/10/22 17:14:33;;;;;;;3.15;1.60;;;;;;;11.98;92.76;99866.97;10125408;29;20052;-78
2023/10/22 17:19:54;;;;;;;5.43;2.35;;;;;;;11.90;94.94;99872.22;10135547;29;20076;-77
2023/10/22 17:24:58;;;;;;;2.03;1.83;;;;;;;11.94;94.27;99868.25;10133182;29;20048;-77
2023/10/22 17:30:01;;;;;;;3.13;1.40;;;;;;;12.23;95.08;99875.38;10135402;29;20501;-77
2023/10/22 17:35:05;;;;;;;2.85;2.20;;;;;;;12.14;93.75;99885.19;10137567;29;20516;-78
2023/10/22 17:40:10;;;;;;;2.65;1.70;;;;;;;12.15;94.68;99882.38;10126892;29;21321;-77
2023/10/22 17:45:13;;;;;;;8.48;6.45;;;;;;;12.22;94.58;99895.25;10124206;29;20056;-77
2023/10/22 17:50:16;;;;;;;3.92;2.10;;;;;;;12.14;95.14;99899.50;10117715;29;20062;-77
2023/10/22 17:55:21;;;;;;;8.93;5.82;;;;;;;12.04;94.46;99904.09;10122249;29;20048;-76
2023/10/22 18:00:24;;;;;;;4.60;2.50;;;;;;;12.05;95.57;99900.41;10111492;29;20044;-77
2023/10/22 18:05:27;;;;;;;4.85;2.83;;;;;;;12.05;95.60;99897.69;10122964;29;20060;-78
2023/10/22 18:10:31;;;;;;;4.97;2.70;;;;;;;11.99;95.07;99905.53;10126056;29;20075;-77
2023/10/22 18:15:40;;;;;;;4.45;2.60;;;;;;;11.98;95.42;99911.88;10138433;29;20068;-77
2023/10/22 18:20:43;;;;;;;4.00;2.70;;;;;;;11.90;95.67;99917.97;10134757;29;20048;-77
2023/10/22 18:25:58;;;;;;;4.13;2.30;;;;;;;11.85;96.40;99928.34;10133376;29;20059;-77
2023/10/22 18:31:05;;;;;;;3.35;2.20;;;;;;;11.80;97.24;99931.47;10137791;29;21342;-77
2023/10/22 18:36:09;;;;;;;3.88;2.50;;;;;;;11.70;97.73;99939.53;10132711;29;20184;-75
2023/10/22 18:41:15;;;;;;;3.35;2.92;;;;;;;11.50;98.80;99954.84;10140137;29;20060;-78
2023/10/22 18:46:20;;;;;;;19.15;9.65;;;;;;;11.44;99.78;99957.25;10145948;29;20115;-79
2023/10/22 18:51:23;;;;;;;25.33;17.40;;;;;;;11.37;100.00;99956.09;10132795;29;20048;-79
2023/10/22 18:56:27;;;;;;;8.68;7.78;;;;;;;11.21;100.00;99962.00;10127487;29;20062;-78
2023/10/22 19:01:30;;;;;;;12.18;11.07;;;;;;;11.20;100.00;99969.22;10142472;29;20048;-78
2023/10/22 19:06:33;;;;;;;10.10;7.43;;;;;;;11.18;100.00;99960.44;10131755;29;20052;-77
2023/10/22 19:11:38;;;;;;;13.18;9.30;;;;;;;11.03;100.00;99975.25;10123588;29;20048;-77
2023/10/22 19:16:41;;;;;;;9.70;7.75;;;;;;;11.05;100.00;99982.19;10130436;29;20056;-78
2023/10/22 19:21:44;;;;;;;9.40;7.03;;;;;;;11.09;100.00;99989.97;10118393;29;20693;-78
2023/10/22 19:26:49;;;;;;;8.20;6.70;;;;;;;11.04;100.00;100001.13;10110221;29;20056;-77
2023/10/22 19:31:51;;;;;;;20.95;14.95;;;;;;;11.04;100.00;100006.50;10121483;29;21026;-77
2023/10/22 19:36:54;;;;;;;9.43;6.93;;;;;;;11.13;100.00;100003.00;10123275;29;20075;-77
2023/10/22 19:42:00;;;;;;;28.58;25.80;;;;;;;11.17;100.00;100017.06;10121353;29;20055;-78
2023/10/22 19:47:03;;;;;;;11.48;7.68;;;;;;;11.27;100.00;100023.28;10119865;29;20055;-78
2023/10/22 19:52:06;;;;;;;18.42;16.48;;;;;;;11.33;100.00;100024.59;10104949;29;20063;-78
2023/10/22 19:57:12;;;;;;;10.65;9.15;;;;;;;11.35;100.00;100025.28;10122820;29;20056;-78
2023/10/22 20:02:15;;;;;;;12.30;9.77;;;;;;;11.33;100.00;100038.91;10114345;29;20088;-77
2023/10/22 20:07:20;;;;;;;13.05;9.90;;;;;;;11.31;100.00;100035.47;10120116;29;21462;-77
2023/10/22 20:12:24;;;;;;;13.27;10.30;;;;;;;11.35;100.00;100038.72;10132261;29;20068;-78
2023/10/22 20:17:27;;;;;;;12.10;9.07;;;;;;;11.40;100.00;100036.50;10114785;29;20056;-78
2023/10/22 20:22:30;;;;;;;13.15;9.80;;;;;;;11.44;100.00;100041.47;10109200;29;20070;-78
2023/10/22 20:27:34;;;;;;;14.02;9.02;;;;;;;11.42;100.00;100045.28;10116131;29;20454;-78
2023/10/22 20:32:37;;;;;;;12.85;9.35;;;;;;;11.43;100.00;100039.75;10118951;29;20075;-78
2023/10/22 20:37:42;;;;;;;11.98;9.15;;;;;;;11.42;100.00;100047.97;10113630;29;20055;-78
2023/10/22 20:42:46;;;;;;;15.27;10.05;;;;;;;11.28;99.85;100044.66;10111519;29;20075;-78
2023/10/22 20:47:49;;;;;;;11.70;9.02;;;;;;;11.19;100.00;100058.06;10099397;29;20056;-78
2023/10/22 20:52:52;;;;;;;10.93;9.05;;;;;;;11.18;100.00;100056.38;10121318;29;20522;-78
2023/10/22 20:57:56;;;;;;;10.45;8.48;;;;;;;11.04;100.00;100069.16;10132736;29;20054;-78
2023/10/22 21:02:59;;;;;;;14.85;7.55;;;;;;;10.95;100.00;100061.06;10143796;29;20055;-78
2023/10/22 21:08:02;;;;;;;11.63;7.95;;;;;;;10.90;100.00;100066.00;10135223;29;20050;-78
2023/10/22 21:13:06;;;;;;;9.40;7.95;;;;;;;10.83;100.00;100066.53;10134965;29;20056;-78
2023/10/22 21:18:09;;;;;;;11.52;9.45;;;;;;;10.79;100.00;100059.72;10150478;29;20067;-77
2023/10/22 21:23:12;;;;;;;12.38;8.90;;;;;;;10.76;100.00;100067.22;10137468;29;20053;-78
2023/10/22 21:28:16;;;;;;;12.90;9.52;;;;;;;10.79;100.00;100064.25;10123692;29;20060;-77
2023/10/22 21:33:23;;;;;;;13.45;9.52;;;;;;;10.92;100.00;100070.25;10119134;29;20064;-78
2023/10/22 21:38:26;;;;;;;12.15;9.75;;;;;;;10.97;100.00;100069.84;10122801;29;20052;-77
2023/10/22 21:43:31;;;;;;;13.48;9.88;;;;;;;11.02;100.00;100071.13;10115335;29;20056;-77
2023/10/22 21:48:34;;;;;;;14.27;10.02;;;;;;;11.02;100.00;100071.13;10120778;29;20045;-77
2023/10/22 21:53:37;;;;;;;10.95;9.48;;;;;;;10.99;100.00;100065.19;10122826;29;20048;-77
2023/10/22 21:58:41;;;;;;;12.30;10.55;;;;;;;10.91;100.00;100067.69;10129445;29;20104;-77
2023/10/22 22:03:44;;;;;;;13.50;10.20;;;;;;;10.83;100.00;100069.22;10120139;29;20539;-78
2023/10/22 22:08:47;;;;;;;10.60;8.90;;;;;;;10.76;100.00;100070.75;10123237;29;20104;-77
2023/10/22 22:13:52;;;;;;;11.00;9.40;;;;;;;10.74;100.00;100066.47;10142807;29;20052;-77
2023/10/22 22:18:55;;;;;;;9.63;7.72;;;;;;;10.76;100.00;100070.75;10147295;29;20063;-78
2023/10/22 22:23:57;;;;;;;9.98;8.27;;;;;;;10.78;100.00;100068.78;10144703;29;20047;-78
2023/10/22 22:29:02;;;;;;;10.10;8.45;;;;;;;10.91;100.00;100078.44;10144741;29;20202;-78
2023/10/22 22:34:05;;;;;;;9.18;8.07;;;;;;;10.93;100.00;100079.16;10137820;29;20055;-78
2023/10/22 22:39:08;;;;;;;8.77;7.30;;;;;;;10.90;100.00;100079.44;10122352;29;20100;-78
2023/10/22 22:44:12;;;;;;;7.82;7.03;;;;;;;10.83;100.00;100088.03;10131970;29;20055;-78
2023/10/22 22:49:15;;;;;;;6.90;6.20;;;;;;;11.05;99.93;100086.13;10132883;29;20055;-77
2023/10/22 22:54:18;;;;;;;7.15;6.15;;;;;;;11.08;99.48;100085.91;10122712;29;20054;-77
2023/10/22 22:59:22;;;;;;;8.60;6.20;;;;;;;11.02;99.39;100081.03;10123216;29;20052;-78
2023/10/22 23:04:26;;;;;;;6.22;5.63;;;;;;;11.01;99.71;100087.41;10126678;29;20064;-78
2023/10/22 23:09:30;;;;;;;7.72;5.88;;;;;;;10.97;99.63;100092.22;10127944;29;20055;-77
2023/10/22 23:14:34;;;;;;;8.80;5.55;;;;;;;10.91;100.00;100099.94;10118159;29;20057;-77
2023/10/22 23:19:38;;;;;;;6.18;5.55;;;;;;;10.99;100.00;100105.50;10115833;29;20513;-78
2023/10/22 23:24:41;;;;;;;6.78;5.47;;;;;;;10.99;100.00;100100.13;10133107;29;20063;-78
2023/10/22 23:29:45;;;;;;;6.35;5.70;;;;;;;11.01;100.00;100107.06;10125270;29;20055;-78